Time,TemperatureF,DewpointF,PressureIn,WindDirection,WindDirectionDegrees,WindSpeedMPH,WindSpeedGustMPH,Humidity,HourlyPrecipIn,Conditions,Clouds,dailyrainin,SoftwareType,DateUTC
2013-02-24 00:02:00,31.4,30.6,29.53,ESE,112,3.0,5.0,97,0.00,,,0.01,Wunderground v.1.15,2013-02-24 05:02:00,
2013-02-24 00:06:00,31.2,30.4,29.54,NE,50,3.0,4.0,97,0.00,,,0.00,Wunderground v.1.15,2013-02-24 05:06:00,
2013-02-24 00:11:00,31.0,30.2,29.53,ENE,72,3.0,4.0,97,0.00,,,0.00,Wunderground v.1.15,2013-02-24 05:11:00,
2013-02-24 00:16:00,30.8,30.0,29.54,East,90,3.0,3.0,97,0.00,,,0.00,Wunderground v.1.15,2013-02-24 05:16:00,
2013-02-24 00:21:00,30.6,29.9,29.54,ENE,78,4.0,4.0,97,0.00,,,0.00,Wunderground v.1.15,2013-02-24 05:21:00,
2013-02-24 00:26:00,30.5,29.8,29.54,ENE,78,3.0,4.0,97,0.00,,,0.00,Wunderground v.1.15,2013-02-24 05:26:00,
2013-02-24 00:31:00,30.3,29.6,29.54,ENE,78,2.0,4.0,97,0.00,,,0.00,Wunderground v.1.15,2013-02-24 05:31:00,
2013-02-24 00:37:00,30.2,29.5,29.54,ENE,74,1.0,4.0,97,0.00,,,0.00,Wunderground v.1.15,2013-02-24 05:37:00,
2013-02-24 00:42:00,29.9,29.2,29.54,ENE,75,2.0,4.0,97,0.00,,,0.00,Wunderground v.1.15,2013-02-24 05:42:00,
2013-02-24 00:51:00,29.6,28.9,29.54,ENE,75,2.0,5.0,97,0.00,,,0.00,Wunderground v.1.15,2013-02-24 05:51:00,
2013-02-24 00:56:00,29.5,28.8,29.54,ENE,76,2.0,2.0,97,0.00,,,0.00,Wunderground v.1.15,2013-02-24 05:56:00,
2013-02-24 01:01:00,29.5,28.8,29.54,East,88,2.0,5.0,97,0.00,,,0.00,Wunderground v.1.15,2013-02-24 06:01:00,
2013-02-24 01:06:00,29.4,28.7,29.54,East,94,2.0,2.0,97,0.00,,,0.00,Wunderground v.1.15,2013-02-24 06:06:00,
2013-02-24 01:11:00,29.4,28.7,29.54,East,94,1.0,4.0,97,0.00,,,0.00,Wunderground v.1.15,2013-02-24 06:11:00,
2013-02-24 01:17:00,29.3,28.6,29.54,East,94,0.0,4.0,97,0.00,,,0.00,Wunderground v.1.15,2013-02-24 06:17:00,
2013-02-24 01:22:00,29.3,28.6,29.54,East,94,0.0,4.0,97,0.00,,,0.00,Wunderground v.1.15,2013-02-24 06:22:00,
2013-02-24 01:31:00,29.3,28.6,29.54,East,94,0.0,4.0,97,0.00,,,0.00,Wunderground v.1.15,2013-02-24 06:31:00,
2013-02-24 01:36:00,29.2,28.5,29.54,East,94,0.0,4.0,97,0.00,,,0.00,Wunderground v.1.15,2013-02-24 06:36:00,
2013-02-24 01:41:00,29.2,28.5,29.54,East,94,0.0,4.0,97,0.00,,,0.00,Wunderground v.1.15,2013-02-24 06:41:00,
2013-02-24 01:46:00,29.0,28.3,29.54,East,94,0.0,4.0,97,0.00,,,0.00,Wunderground v.1.15,2013-02-24 06:46:00,
2013-02-24 01:52:00,29.0,28.3,29.53,East,94,0.0,4.0,97,0.00,,,0.00,Wunderground v.1.15,2013-02-24 06:52:00,
2013-02-24 01:57:00,29.0,28.3,29.53,East,94,0.0,4.0,97,0.00,,,0.00,Wunderground v.1.15,2013-02-24 06:57:00,
2013-02-24 02:06:00,28.9,28.2,29.53,East,94,0.0,4.0,97,0.00,,,0.00,Wunderground v.1.15,2013-02-24 07:06:00,
2013-02-24 02:11:00,28.9,28.2,29.52,East,94,0.0,4.0,97,0.00,,,0.00,Wunderground v.1.15,2013-02-24 07:11:00,
2013-02-24 02:16:00,28.9,28.2,29.52,East,94,0.0,4.0,97,0.00,,,0.00,Wunderground v.1.15,2013-02-24 07:16:00,
2013-02-24 02:21:00,28.9,28.2,29.52,East,94,0.0,4.0,97,0.00,,,0.00,Wunderground v.1.15,2013-02-24 07:21:00,
2013-02-24 02:26:00,28.8,28.1,29.52,East,94,0.0,4.0,97,0.00,,,0.00,Wunderground v.1.15,2013-02-24 07:26:00,
2013-02-24 02:32:00,28.8,28.1,29.51,East,94,0.0,4.0,97,0.00,,,0.00,Wunderground v.1.15,2013-02-24 07:32:00,
2013-02-24 02:37:00,28.8,28.1,29.51,East,94,0.0,4.0,97,0.00,,,0.00,Wunderground v.1.15,2013-02-24 07:37:00,
2013-02-24 02:42:00,28.7,28.0,29.52,East,94,0.0,4.0,97,0.00,,,0.00,Wunderground v.1.15,2013-02-24 07:42:00,
2013-02-24 02:51:00,28.7,28.0,29.52,East,94,0.0,4.0,97,0.00,,,0.00,Wunderground v.1.15,2013-02-24 07:51:00,
2013-02-24 02:56:00,28.6,27.9,29.52,East,94,0.0,4.0,97,0.00,,,0.00,Wunderground v.1.15,2013-02-24 07:56:00,
2013-02-24 03:01:00,28.6,27.9,29.52,East,94,0.0,4.0,97,0.00,,,0.00,Wunderground v.1.15,2013-02-24 08:01:00,
2013-02-24 03:06:00,28.5,27.8,29.52,East,94,0.0,4.0,97,0.00,,,0.00,Wunderground v.1.15,2013-02-24 08:06:00,
2013-02-24 03:11:00,28.5,27.8,29.52,East,94,0.0,4.0,97,0.00,,,0.00,Wunderground v.1.15,2013-02-24 08:11:00,
2013-02-24 03:17:00,28.4,27.4,29.52,East,94,0.0,4.0,96,0.00,,,0.00,Wunderground v.1.15,2013-02-24 08:17:00,
2013-02-24 03:22:00,28.4,27.4,29.52,East,94,0.0,4.0,96,0.00,,,0.00,Wunderground v.1.15,2013-02-24 08:22:00,
2013-02-24 03:31:00,28.4,27.4,29.53,East,94,0.0,4.0,96,0.00,,,0.00,Wunderground v.1.15,2013-02-24 08:31:00,
2013-02-24 03:36:00,28.3,27.3,29.53,East,94,0.0,4.0,96,0.00,,,0.00,Wunderground v.1.15,2013-02-24 08:36:00,
2013-02-24 03:41:00,28.2,27.2,29.53,East,94,0.0,4.0,96,0.00,,,0.00,Wunderground v.1.15,2013-02-24 08:41:00,
2013-02-24 03:46:00,28.2,27.2,29.53,East,94,0.0,4.0,96,0.00,,,0.00,Wunderground v.1.15,2013-02-24 08:46:00,
2013-02-24 03:51:00,28.1,27.1,29.53,East,94,0.0,4.0,96,0.00,,,0.00,Wunderground v.1.15,2013-02-24 08:51:00,
2013-02-24 03:57:00,28.0,27.0,29.53,East,94,0.0,4.0,96,0.00,,,0.00,Wunderground v.1.15,2013-02-24 08:57:00,
2013-02-24 04:06:00,27.9,26.7,29.53,East,94,0.0,4.0,95,0.00,,,0.00,Wunderground v.1.15,2013-02-24 09:06:00,
2013-02-24 04:11:00,27.9,26.7,29.53,East,94,0.0,4.0,95,0.00,,,0.00,Wunderground v.1.15,2013-02-24 09:11:00,
2013-02-24 04:16:00,27.9,26.7,29.53,East,94,0.0,4.0,95,0.00,,,0.00,Wunderground v.1.15,2013-02-24 09:16:00,
2013-02-24 04:21:00,27.9,26.4,29.52,East,94,0.0,4.0,94,0.00,,,0.00,Wunderground v.1.15,2013-02-24 09:21:00,
2013-02-24 04:26:00,27.9,26.4,29.52,East,94,0.0,4.0,94,0.00,,,0.00,Wunderground v.1.15,2013-02-24 09:26:00,
2013-02-24 04:32:00,27.9,26.4,29.52,East,94,0.0,4.0,94,0.00,,,0.00,Wunderground v.1.15,2013-02-24 09:32:00,
2013-02-24 04:37:00,27.8,26.3,29.52,East,94,0.0,4.0,94,0.00,,,0.00,Wunderground v.1.15,2013-02-24 09:37:00,
2013-02-24 04:46:00,27.9,26.1,29.52,East,94,0.0,4.0,93,0.00,,,0.00,Wunderground v.1.15,2013-02-24 09:46:00,
2013-02-24 04:51:00,27.9,26.1,29.52,East,94,0.0,4.0,93,0.00,,,0.00,Wunderground v.1.15,2013-02-24 09:51:00,
2013-02-24 04:56:00,27.9,26.1,29.52,East,94,0.0,4.0,93,0.00,,,0.00,Wunderground v.1.15,2013-02-24 09:56:00,
2013-02-24 05:01:00,27.9,25.9,29.52,East,94,0.0,4.0,92,0.00,,,0.00,Wunderground v.1.15,2013-02-24 10:01:00,
2013-02-24 05:06:00,28.0,26.0,29.52,East,94,0.0,4.0,92,0.00,,,0.00,Wunderground v.1.15,2013-02-24 10:06:00,
2013-02-24 05:12:00,28.0,26.0,29.52,East,94,0.0,4.0,92,0.00,,,0.00,Wunderground v.1.15,2013-02-24 10:12:00,
2013-02-24 05:17:00,28.0,26.0,29.52,East,94,0.0,4.0,92,0.00,,,0.00,Wunderground v.1.15,2013-02-24 10:17:00,
2013-02-24 05:26:00,28.0,26.0,29.52,East,94,0.0,4.0,92,0.00,,,0.00,Wunderground v.1.15,2013-02-24 10:26:00,
2013-02-24 05:31:00,28.0,25.7,29.52,East,94,0.0,4.0,91,0.00,,,0.00,Wunderground v.1.15,2013-02-24 10:31:00,
2013-02-24 05:36:00,28.0,25.7,29.52,East,94,0.0,4.0,91,0.00,,,0.00,Wunderground v.1.15,2013-02-24 10:36:00,
2013-02-24 05:41:00,28.1,25.8,29.52,East,94,0.0,4.0,91,0.00,,,0.00,Wunderground v.1.15,2013-02-24 10:41:00,
2013-02-24 05:46:00,28.1,25.8,29.52,East,94,0.0,4.0,91,0.00,,,0.00,Wunderground v.1.15,2013-02-24 10:46:00,
2013-02-24 05:52:00,28.2,25.9,29.52,East,94,0.0,4.0,91,0.00,,,0.00,Wunderground v.1.15,2013-02-24 10:52:00,
2013-02-24 06:01:00,28.1,25.8,29.52,East,94,0.0,4.0,91,0.00,,,0.00,Wunderground v.1.15,2013-02-24 11:01:00,
2013-02-24 06:06:00,28.1,25.8,29.52,East,94,0.0,4.0,91,0.00,,,0.00,Wunderground v.1.15,2013-02-24 11:06:00,
2013-02-24 06:11:00,28.1,25.8,29.52,East,94,0.0,4.0,91,0.00,,,0.00,Wunderground v.1.15,2013-02-24 11:11:00,
2013-02-24 06:16:00,28.1,25.8,29.52,East,94,0.0,4.0,91,0.00,,,0.00,Wunderground v.1.15,2013-02-24 11:16:00,
2013-02-24 06:21:00,28.0,25.4,29.52,East,94,0.0,4.0,90,0.00,,,0.00,Wunderground v.1.15,2013-02-24 11:21:00,
2013-02-24 06:27:00,28.0,25.4,29.52,East,94,0.0,4.0,90,0.00,,,0.00,Wunderground v.1.15,2013-02-24 11:27:00,
2013-02-24 06:32:00,28.0,25.2,29.52,East,94,0.0,4.0,89,0.00,,,0.00,Wunderground v.1.15,2013-02-24 11:32:00,
2013-02-24 06:41:00,27.9,25.1,29.52,East,94,0.0,4.0,89,0.00,,,0.00,Wunderground v.1.15,2013-02-24 11:41:00,
2013-02-24 06:46:00,27.9,24.8,29.52,East,94,0.0,4.0,88,0.00,,,0.00,Wunderground v.1.15,2013-02-24 11:46:00,
2013-02-24 06:51:00,27.9,24.8,29.52,East,94,0.0,4.0,88,0.00,,,0.00,Wunderground v.1.15,2013-02-24 11:51:00,
2013-02-24 06:56:00,27.9,24.8,29.53,East,94,0.0,4.0,88,0.00,,,0.00,Wunderground v.1.15,2013-02-24 11:56:00,
2013-02-24 07:01:00,27.8,24.4,29.52,East,94,0.0,4.0,87,0.00,,,0.00,Wunderground v.1.15,2013-02-24 12:01:00,
2013-02-24 07:07:00,27.8,24.4,29.53,East,94,0.0,4.0,87,0.00,,,0.00,Wunderground v.1.15,2013-02-24 12:07:00,
2013-02-24 07:17:00,27.8,24.4,29.53,East,94,0.0,4.0,87,0.00,,,0.00,Wunderground v.1.15,2013-02-24 12:17:00,
2013-02-24 07:26:00,27.8,24.4,29.53,East,94,0.0,4.0,87,0.00,,,0.00,Wunderground v.1.15,2013-02-24 12:26:00,
2013-02-24 07:31:00,27.8,24.2,29.53,East,94,0.0,4.0,86,0.00,,,0.00,Wunderground v.1.15,2013-02-24 12:31:00,
2013-02-24 07:36:00,27.9,24.3,29.53,East,94,0.0,4.0,86,0.00,,,0.00,Wunderground v.1.15,2013-02-24 12:36:00,
2013-02-24 07:41:00,27.9,24.3,29.53,East,94,0.0,4.0,86,0.00,,,0.00,Wunderground v.1.15,2013-02-24 12:41:00,
2013-02-24 07:47:00,28.0,24.4,29.53,East,94,0.0,4.0,86,0.00,,,0.00,Wunderground v.1.15,2013-02-24 12:47:00,
2013-02-24 07:52:00,28.1,24.5,29.53,East,94,0.0,4.0,86,0.00,,,0.00,Wunderground v.1.15,2013-02-24 12:52:00,
2013-02-24 08:01:00,28.3,24.4,29.53,East,94,0.0,4.0,85,0.00,,,0.00,Wunderground v.1.15,2013-02-24 13:01:00,
2013-02-24 08:06:00,28.4,24.5,29.53,East,94,0.0,4.0,85,0.00,,,0.00,Wunderground v.1.15,2013-02-24 13:06:00,
2013-02-24 08:11:00,28.5,24.6,29.53,East,94,0.0,4.0,85,0.00,,,0.00,Wunderground v.1.15,2013-02-24 13:11:00,
2013-02-24 08:16:00,28.6,24.7,29.53,East,94,0.0,4.0,85,0.00,,,0.00,Wunderground v.1.15,2013-02-24 13:16:00,
2013-02-24 08:22:00,28.7,24.8,29.53,East,94,0.0,4.0,85,0.00,,,0.00,Wunderground v.1.15,2013-02-24 13:22:00,
2013-02-24 08:27:00,28.7,24.5,29.53,East,94,0.0,4.0,84,0.00,,,0.00,Wunderground v.1.15,2013-02-24 13:27:00,
2013-02-24 08:32:00,28.7,24.5,29.53,East,94,1.0,4.0,84,0.00,,,0.00,Wunderground v.1.15,2013-02-24 13:32:00,
2013-02-24 08:41:00,28.6,24.4,29.53,East,94,1.0,2.0,84,0.00,,,0.00,Wunderground v.1.15,2013-02-24 13:41:00,
2013-02-24 08:46:00,28.6,24.4,29.52,East,94,1.0,1.0,84,0.00,,,0.00,Wunderground v.1.15,2013-02-24 13:46:00,
2013-02-24 08:51:00,28.7,24.2,29.52,East,94,1.0,4.0,83,0.00,,,0.00,Wunderground v.1.15,2013-02-24 13:51:00,
2013-02-24 08:56:00,28.7,23.9,29.52,East,94,2.0,2.0,82,0.00,,,0.00,Wunderground v.1.15,2013-02-24 13:56:00,
2013-02-24 09:01:00,28.6,23.8,29.52,East,82,2.0,4.0,82,0.00,,,0.00,Wunderground v.1.15,2013-02-24 14:01:00,
2013-02-24 09:07:00,28.6,23.8,29.52,East,82,1.0,1.0,82,0.00,,,0.00,Wunderground v.1.15,2013-02-24 14:07:00,
2013-02-24 09:12:00,28.6,23.8,29.52,East,82,1.0,4.0,82,0.00,,,0.00,Wunderground v.1.15,2013-02-24 14:12:00,
2013-02-24 09:21:00,28.6,23.8,29.52,East,82,2.0,4.0,82,0.00,,,0.00,Wunderground v.1.15,2013-02-24 14:21:00,
2013-02-24 09:26:00,28.7,23.6,29.52,East,82,1.0,1.0,81,0.00,,,0.00,Wunderground v.1.15,2013-02-24 14:26:00,
2013-02-24 09:31:00,28.7,23.9,29.52,East,82,0.0,4.0,82,0.00,,,0.00,Wunderground v.1.15,2013-02-24 14:31:00,
2013-02-24 09:36:00,28.7,23.9,29.52,East,81,0.0,4.0,82,0.00,,,0.00,Wunderground v.1.15,2013-02-24 14:36:00,
2013-02-24 09:41:00,28.7,23.9,29.52,East,81,1.0,4.0,82,0.00,,,0.00,Wunderground v.1.15,2013-02-24 14:41:00,
2013-02-24 09:47:00,28.8,24.0,29.52,East,81,0.0,4.0,82,0.00,,,0.00,Wunderground v.1.15,2013-02-24 14:47:00,
2013-02-24 09:56:00,28.7,23.9,29.52,ENE,77,1.0,1.0,82,0.00,,,0.00,Wunderground v.1.15,2013-02-24 14:56:00,
2013-02-24 10:01:00,28.7,24.2,29.53,ENE,75,1.0,3.0,83,0.00,,,0.00,Wunderground v.1.15,2013-02-24 15:01:00,
2013-02-24 10:06:00,28.5,24.0,29.52,ENE,71,1.0,1.0,83,0.00,,,0.00,Wunderground v.1.15,2013-02-24 15:06:00,
2013-02-24 10:11:00,28.4,24.2,29.53,East,90,2.0,2.0,84,0.00,,,0.00,Wunderground v.1.15,2013-02-24 15:11:00,
2013-02-24 10:17:00,28.4,24.5,29.53,NE,35,2.0,2.0,85,0.00,,,0.00,Wunderground v.1.15,2013-02-24 15:17:00,
2013-02-24 10:22:00,28.2,24.6,29.53,East,92,1.0,4.0,86,0.00,,,0.00,Wunderground v.1.15,2013-02-24 15:22:00,
2013-02-24 10:31:00,28.1,24.7,29.53,ENE,73,1.0,4.0,87,0.00,,,0.00,Wunderground v.1.15,2013-02-24 15:31:00,
2013-02-24 10:36:00,28.2,24.8,29.53,ENE,73,1.0,4.0,87,0.00,,,0.00,Wunderground v.1.15,2013-02-24 15:36:00,
2013-02-24 10:41:00,28.3,24.9,29.53,NNW,347,1.0,4.0,87,0.00,,,0.00,Wunderground v.1.15,2013-02-24 15:41:00,
2013-02-24 10:46:00,28.3,24.9,29.53,WSW,237,1.0,1.0,87,0.00,,,0.00,Wunderground v.1.15,2013-02-24 15:46:00,
2013-02-24 10:51:00,28.4,24.7,29.53,SE,133,1.0,4.0,86,0.00,,,0.00,Wunderground v.1.15,2013-02-24 15:51:00,
2013-02-24 10:57:00,28.4,24.5,29.53,East,89,1.0,1.0,85,0.00,,,0.00,Wunderground v.1.15,2013-02-24 15:57:00,
2013-02-24 11:06:00,28.7,24.5,29.53,NE,44,1.0,1.0,84,0.00,,,0.00,Wunderground v.1.15,2013-02-24 16:06:00,
2013-02-24 11:11:00,28.9,24.1,29.53,ENE,75,1.0,7.0,82,0.00,,,0.00,Wunderground v.1.15,2013-02-24 16:11:00,
2013-02-24 11:16:00,28.9,24.1,29.53,ENE,65,2.0,5.0,82,0.00,,,0.00,Wunderground v.1.15,2013-02-24 16:16:00,
2013-02-24 11:21:00,28.9,24.1,29.53,WSW,256,2.0,5.0,82,0.00,,,0.00,Wunderground v.1.15,2013-02-24 16:21:00,
2013-02-24 11:26:00,28.9,24.1,29.53,ENE,71,2.0,2.0,82,0.00,,,0.00,Wunderground v.1.15,2013-02-24 16:26:00,
2013-02-24 11:32:00,29.0,23.9,29.53,East,86,2.0,5.0,81,0.00,,,0.00,Wunderground v.1.15,2013-02-24 16:32:00,
2013-02-24 11:37:00,29.2,24.1,29.53,NNE,22,2.0,2.0,81,0.00,,,0.00,Wunderground v.1.15,2013-02-24 16:37:00,
2013-02-24 11:46:00,29.1,24.0,29.53,West,267,1.0,4.0,81,0.00,,,0.00,Wunderground v.1.15,2013-02-24 16:46:00,
2013-02-24 11:51:00,29.2,23.8,29.53,NW,320,2.0,6.0,80,0.00,,,0.00,Wunderground v.1.15,2013-02-24 16:51:00,
2013-02-24 12:01:00,29.3,23.9,29.53,East,80,2.0,4.0,80,0.00,,,0.00,Wunderground v.1.15,2013-02-24 17:01:00,
2013-02-24 12:06:00,29.3,23.9,29.53,SSW,195,1.0,1.0,80,0.00,,,0.00,Wunderground v.1.15,2013-02-24 17:06:00,
2013-02-24 12:12:00,29.4,24.0,29.53,ENE,65,1.0,4.0,80,0.00,,,0.00,Wunderground v.1.15,2013-02-24 17:12:00,
2013-02-24 12:17:00,29.2,23.5,29.53,NE,38,2.0,5.0,79,0.00,,,0.00,Wunderground v.1.15,2013-02-24 17:17:00,
2013-02-24 12:26:00,29.0,23.3,29.53,ESE,105,2.0,2.0,79,0.00,,,0.00,Wunderground v.1.15,2013-02-24 17:26:00,
2013-02-24 12:31:00,29.0,23.3,29.53,ENE,76,2.0,4.0,79,0.00,,,0.00,Wunderground v.1.15,2013-02-24 17:31:00,
2013-02-24 12:36:00,29.0,23.3,29.53,North,5,2.0,2.0,79,0.00,,,0.00,Wunderground v.1.15,2013-02-24 17:36:00,
2013-02-24 12:41:00,29.0,23.0,29.53,East,96,2.0,5.0,78,0.00,,,0.00,Wunderground v.1.15,2013-02-24 17:41:00,
2013-02-24 12:47:00,29.0,23.3,29.53,South,178,2.0,4.0,79,0.00,,,0.00,Wunderground v.1.15,2013-02-24 17:47:00,
2013-02-24 12:52:00,29.0,23.3,29.53,WNW,292,2.0,4.0,79,0.00,,,0.00,Wunderground v.1.15,2013-02-24 17:52:00,
2013-02-24 13:01:00,29.1,23.7,29.53,ENE,76,1.0,2.0,80,0.00,,,0.00,Wunderground v.1.15,2013-02-24 18:01:00,
2013-02-24 13:06:00,29.1,23.7,29.53,East,91,2.0,4.0,80,0.00,,,0.00,Wunderground v.1.15,2013-02-24 18:06:00,
2013-02-24 13:11:00,29.0,23.6,29.53,North,5,2.0,5.0,80,0.00,,,0.00,Wunderground v.1.15,2013-02-24 18:11:00,
2013-02-24 13:16:00,29.0,23.6,29.53,NNW,331,2.0,2.0,80,0.00,,,0.00,Wunderground v.1.15,2013-02-24 18:16:00,
2013-02-24 13:21:00,29.0,23.9,29.53,West,281,2.0,4.0,81,0.00,,,0.00,Wunderground v.1.15,2013-02-24 18:21:00,
2013-02-24 13:27:00,29.0,24.2,29.53,North,355,2.0,2.0,82,0.00,,,0.00,Wunderground v.1.15,2013-02-24 18:27:00,
2013-02-24 13:32:00,29.0,24.2,29.53,ENE,74,1.0,10.0,82,0.00,,,0.00,Wunderground v.1.15,2013-02-24 18:32:00,
2013-02-24 13:41:00,28.4,24.7,29.53,ENE,70,2.0,4.0,86,0.00,,,0.00,Wunderground v.1.15,2013-02-24 18:41:00,
2013-02-24 13:46:00,28.2,25.1,29.53,WSW,250,1.0,1.0,88,0.00,,,0.00,Wunderground v.1.15,2013-02-24 18:46:00,
2013-02-24 13:51:00,27.9,25.1,29.54,NNW,329,2.0,7.0,89,0.00,,,0.00,Wunderground v.1.15,2013-02-24 18:51:00,
2013-02-24 13:56:00,27.8,25.0,29.54,East,92,2.0,2.0,89,0.00,,,0.00,Wunderground v.1.15,2013-02-24 18:56:00,
2013-02-24 14:01:00,27.8,25.2,29.54,West,268,2.0,4.0,90,0.00,,,0.00,Wunderground v.1.15,2013-02-24 19:01:00,
2013-02-24 14:07:00,27.8,25.2,29.54,NNW,336,1.0,1.0,90,0.00,,,0.00,Wunderground v.1.15,2013-02-24 19:07:00,
2013-02-24 14:16:00,28.0,25.7,29.54,East,85,1.0,1.0,91,0.00,,,0.00,Wunderground v.1.15,2013-02-24 19:16:00,
2013-02-24 14:21:00,28.3,26.0,29.54,ENE,58,1.0,4.0,91,0.00,,,0.00,Wunderground v.1.15,2013-02-24 19:21:00,
2013-02-24 14:26:00,28.4,26.1,29.54,ENE,71,1.0,4.0,91,0.00,,,0.00,Wunderground v.1.15,2013-02-24 19:26:00,
2013-02-24 14:31:00,28.4,26.1,29.54,ENE,73,1.0,4.0,91,0.00,,,0.00,Wunderground v.1.15,2013-02-24 19:31:00,
2013-02-24 14:36:00,28.5,26.2,29.54,SSW,194,1.0,4.0,91,0.00,,,0.00,Wunderground v.1.15,2013-02-24 19:36:00,
2013-02-24 14:41:00,28.4,25.8,29.54,ENE,76,3.0,4.0,90,0.00,,,0.00,Wunderground v.1.15,2013-02-24 19:41:00,
2013-02-24 14:46:00,28.4,25.8,29.54,WSW,239,3.0,3.0,90,0.00,,,0.00,Wunderground v.1.15,2013-02-24 19:46:00,
2013-02-24 14:52:00,28.5,25.9,29.54,NE,37,2.0,4.0,90,0.00,,,0.00,Wunderground v.1.15,2013-02-24 19:52:00,
2013-02-24 15:01:00,28.4,25.8,29.55,SW,220,3.0,4.0,90,0.00,,,0.00,Wunderground v.1.15,2013-02-24 20:01:00,
2013-02-24 15:06:00,28.3,25.7,29.55,South,180,3.0,3.0,90,0.00,,,0.00,Wunderground v.1.15,2013-02-24 20:06:00,
2013-02-24 15:11:00,28.0,25.4,29.55,ESE,109,2.0,4.0,90,0.00,,,0.00,Wunderground v.1.15,2013-02-24 20:11:00,
2013-02-24 15:17:00,27.9,25.3,29.55,NE,46,2.0,2.0,90,0.00,,,0.00,Wunderground v.1.15,2013-02-24 20:17:00,
2013-02-24 15:27:00,28.0,25.7,29.56,East,100,1.0,1.0,91,0.00,,,0.00,Wunderground v.1.15,2013-02-24 20:27:00,
2013-02-24 15:36:00,28.0,25.7,29.56,NW,304,1.0,4.0,91,0.00,,,0.00,Wunderground v.1.15,2013-02-24 20:36:00,
2013-02-24 15:41:00,27.9,25.3,29.56,East,92,2.0,4.0,90,0.00,,,0.00,Wunderground v.1.15,2013-02-24 20:41:00,
2013-02-24 15:46:00,28.1,25.5,29.56,NNE,30,2.0,2.0,90,0.00,,,0.00,Wunderground v.1.15,2013-02-24 20:46:00,
2013-02-24 15:51:00,28.0,25.2,29.56,SSW,202,1.0,3.0,89,0.00,,,0.00,Wunderground v.1.15,2013-02-24 20:51:00,
2013-02-24 16:02:00,27.9,25.1,29.57,ENE,64,2.0,4.0,89,0.00,,,0.00,Wunderground v.1.15,2013-02-24 21:02:00,
2013-02-24 16:07:00,27.8,25.0,29.56,East,83,3.0,7.0,89,0.00,,,0.00,Wunderground v.1.15,2013-02-24 21:07:00,
2013-02-24 16:16:00,27.6,25.1,29.57,East,99,2.0,4.0,90,0.00,,,0.00,Wunderground v.1.15,2013-02-24 21:16:00,
2013-02-24 16:21:00,27.6,24.8,29.57,East,83,1.0,5.0,89,0.00,,,0.00,Wunderground v.1.15,2013-02-24 21:21:00,
2013-02-24 16:26:00,27.6,24.8,29.57,East,88,2.0,2.0,89,0.00,,,0.00,Wunderground v.1.15,2013-02-24 21:26:00,
2013-02-24 16:31:00,27.5,24.7,29.57,ENE,70,3.0,4.0,89,0.00,,,0.00,Wunderground v.1.15,2013-02-24 21:31:00,
2013-02-24 16:36:00,27.4,24.9,29.57,South,184,2.0,2.0,90,0.00,,,0.00,Wunderground v.1.15,2013-02-24 21:36:00,
2013-02-24 16:42:00,27.2,24.7,29.58,ENE,61,2.0,4.0,90,0.00,,,0.00,Wunderground v.1.15,2013-02-24 21:42:00,
2013-02-24 16:47:00,27.0,24.7,29.58,East,86,2.0,2.0,91,0.00,,,0.00,Wunderground v.1.15,2013-02-24 21:47:00,
2013-02-24 16:56:00,26.9,24.6,29.58,ENE,63,2.0,2.0,91,0.00,,,0.00,Wunderground v.1.15,2013-02-24 21:56:00,
2013-02-24 17:01:00,26.8,24.8,29.58,ENE,59,2.0,4.0,92,0.00,,,0.00,Wunderground v.1.15,2013-02-24 22:01:00,
2013-02-24 17:06:00,26.8,24.8,29.59,NE,53,2.0,4.0,92,0.00,,,0.00,Wunderground v.1.15,2013-02-24 22:06:00,
2013-02-24 17:11:00,26.9,24.9,29.59,ENE,59,1.0,4.0,92,0.00,,,0.00,Wunderground v.1.15,2013-02-24 22:11:00,
2013-02-24 17:16:00,26.8,24.8,29.59,WSW,251,2.0,2.0,92,0.00,,,0.00,Wunderground v.1.15,2013-02-24 22:16:00,
2013-02-24 17:22:00,26.8,24.8,29.59,North,9,2.0,4.0,92,0.00,,,0.00,Wunderground v.1.15,2013-02-24 22:22:00,
2013-02-24 17:31:00,26.8,25.0,29.60,SSE,167,1.0,4.0,93,0.00,,,0.00,Wunderground v.1.15,2013-02-24 22:31:00,
2013-02-24 17:36:00,26.7,24.9,29.60,NW,321,2.0,2.0,93,0.00,,,0.00,Wunderground v.1.15,2013-02-24 22:36:00,
2013-02-24 17:41:00,26.7,24.9,29.60,NW,325,2.0,4.0,93,0.00,,,0.00,Wunderground v.1.15,2013-02-24 22:41:00,
2013-02-24 17:46:00,26.6,24.8,29.61,East,88,1.0,4.0,93,0.00,,,0.00,Wunderground v.1.15,2013-02-24 22:46:00,
2013-02-24 17:51:00,26.6,24.8,29.61,ENE,67,1.0,4.0,93,0.00,,,0.00,Wunderground v.1.15,2013-02-24 22:51:00,
2013-02-24 17:57:00,26.6,24.8,29.61,NE,40,1.0,4.0,93,0.00,,,0.00,Wunderground v.1.15,2013-02-24 22:57:00,
2013-02-24 18:02:00,26.6,24.8,29.61,NW,318,1.0,4.0,93,0.00,,,0.00,Wunderground v.1.15,2013-02-24 23:02:00,
2013-02-24 18:11:00,26.5,24.8,29.62,ENE,72,1.0,4.0,93,0.00,,,0.00,Wunderground v.1.15,2013-02-24 23:11:00,
2013-02-24 18:16:00,26.5,24.8,29.62,East,90,1.0,1.0,93,0.00,,,0.00,Wunderground v.1.15,2013-02-24 23:16:00,
2013-02-24 18:21:00,26.4,24.7,29.63,ESE,108,1.0,4.0,93,0.00,,,0.00,Wunderground v.1.15,2013-02-24 23:21:00,
2013-02-24 18:26:00,26.4,24.7,29.63,NNW,337,1.0,4.0,93,0.00,,,0.00,Wunderground v.1.15,2013-02-24 23:26:00,
2013-02-24 18:31:00,26.3,24.6,29.63,East,80,1.0,4.0,93,0.00,,,0.00,Wunderground v.1.15,2013-02-24 23:31:00,
2013-02-24 18:37:00,26.3,24.6,29.63,WSW,252,1.0,1.0,93,0.00,,,0.00,Wunderground v.1.15,2013-02-24 23:37:00,
2013-02-24 18:42:00,26.3,24.6,29.63,NE,38,1.0,4.0,93,0.00,,,0.00,Wunderground v.1.15,2013-02-24 23:42:00,
2013-02-24 18:51:00,26.4,24.7,29.63,ENE,78,1.0,2.0,93,0.00,,,0.00,Wunderground v.1.15,2013-02-24 23:51:00,
2013-02-24 18:56:00,26.4,24.7,29.63,ENE,69,1.0,1.0,93,0.00,,,0.00,Wunderground v.1.15,2013-02-24 23:56:00,
2013-02-24 19:01:00,26.4,24.7,29.64,East,98,1.0,4.0,93,0.00,,,0.00,Wunderground v.1.15,2013-02-25 00:01:00,
2013-02-24 19:06:00,26.4,24.7,29.64,East,92,0.0,4.0,93,0.00,,,0.00,Wunderground v.1.15,2013-02-25 00:06:00,
2013-02-24 19:11:00,26.4,24.7,29.64,WNW,302,1.0,4.0,93,0.00,,,0.00,Wunderground v.1.15,2013-02-25 00:11:00,
2013-02-24 19:17:00,26.4,24.7,29.65,NE,55,1.0,1.0,93,0.00,,,0.00,Wunderground v.1.15,2013-02-25 00:17:00,
2013-02-24 19:22:00,26.5,24.8,29.65,NE,54,1.0,4.0,93,0.00,,,0.00,Wunderground v.1.15,2013-02-25 00:22:00,
2013-02-24 19:27:00,26.5,24.8,29.65,ESE,114,1.0,1.0,93,0.00,,,0.00,Wunderground v.1.15,2013-02-25 00:27:00,
2013-02-24 19:36:00,26.6,24.6,29.65,SW,229,1.0,1.0,92,0.00,,,0.00,Wunderground v.1.15,2013-02-25 00:36:00,
2013-02-24 19:41:00,26.6,24.8,29.65,West,275,1.0,4.0,93,0.00,,,0.00,Wunderground v.1.15,2013-02-25 00:41:00,
2013-02-24 19:46:00,26.6,24.6,29.65,NNW,345,1.0,1.0,92,0.00,,,0.00,Wunderground v.1.15,2013-02-25 00:46:00,
2013-02-24 19:51:00,26.6,24.6,29.65,ENE,61,1.0,5.0,92,0.00,,,0.00,Wunderground v.1.15,2013-02-25 00:51:00,
2013-02-24 19:57:00,26.6,24.6,29.66,NNE,24,1.0,4.0,92,0.00,,,0.00,Wunderground v.1.15,2013-02-25 00:57:00,
2013-02-24 20:02:00,26.7,24.7,29.66,ESE,104,1.0,4.0,92,0.00,,,0.00,Wunderground v.1.15,2013-02-25 01:02:00,
2013-02-24 20:11:00,26.9,24.6,29.67,WSW,243,2.0,4.0,91,0.00,,,0.00,Wunderground v.1.15,2013-02-25 01:11:00,
2013-02-24 20:16:00,26.9,24.6,29.67,ENE,63,2.0,2.0,91,0.00,,,0.00,Wunderground v.1.15,2013-02-25 01:16:00,
2013-02-24 20:21:00,27.0,24.7,29.67,East,90,1.0,5.0,91,0.00,,,0.00,Wunderground v.1.15,2013-02-25 01:21:00,
2013-02-24 20:26:00,26.9,24.6,29.67,NE,53,1.0,4.0,91,0.00,,,0.00,Wunderground v.1.15,2013-02-25 01:26:00,
2013-02-24 20:31:00,27.0,24.7,29.67,ENE,63,2.0,4.0,91,0.00,,,0.00,Wunderground v.1.15,2013-02-25 01:31:00,
2013-02-24 20:36:00,27.0,24.7,29.67,NW,321,2.0,4.0,91,0.00,,,0.00,Wunderground v.1.15,2013-02-25 01:36:00,
2013-02-24 20:42:00,27.0,24.7,29.67,SSE,155,1.0,4.0,91,0.00,,,0.00,Wunderground v.1.15,2013-02-25 01:42:00,
2013-02-24 20:47:00,27.0,24.7,29.68,East,83,1.0,1.0,91,0.00,,,0.00,Wunderground v.1.15,2013-02-25 01:47:00,
2013-02-24 20:56:00,27.0,24.7,29.68,East,92,2.0,2.0,91,0.00,,,0.00,Wunderground v.1.15,2013-02-25 01:56:00,
2013-02-24 21:01:00,27.0,24.7,29.68,ENE,76,1.0,4.0,91,0.00,,,0.00,Wunderground v.1.15,2013-02-25 02:01:00,
2013-02-24 21:06:00,27.0,24.7,29.68,North,360,1.0,4.0,91,0.00,,,0.00,Wunderground v.1.15,2013-02-25 02:06:00,
2013-02-24 21:11:00,27.0,24.7,29.68,NE,49,1.0,4.0,91,0.00,,,0.00,Wunderground v.1.15,2013-02-25 02:11:00,
2013-02-24 21:16:00,27.0,24.7,29.68,NE,40,1.0,4.0,91,0.00,,,0.00,Wunderground v.1.15,2013-02-25 02:16:00,
2013-02-24 21:22:00,27.1,24.8,29.68,SW,232,1.0,4.0,91,0.00,,,0.00,Wunderground v.1.15,2013-02-25 02:22:00,
2013-02-24 21:31:00,27.1,25.1,29.68,ENE,74,1.0,4.0,92,0.00,,,0.00,Wunderground v.1.15,2013-02-25 02:31:00,
2013-02-24 21:36:00,27.1,25.1,29.68,SSE,165,1.0,1.0,92,0.00,,,0.00,Wunderground v.1.15,2013-02-25 02:36:00,
2013-02-24 21:41:00,27.1,25.1,29.68,ESE,107,1.0,4.0,92,0.00,,,0.00,Wunderground v.1.15,2013-02-25 02:41:00,
2013-02-24 21:46:00,27.1,25.1,29.68,NW,321,1.0,1.0,92,0.00,,,0.00,Wunderground v.1.15,2013-02-25 02:46:00,
2013-02-24 21:51:00,27.1,25.1,29.68,East,92,1.0,4.0,92,0.00,,,0.00,Wunderground v.1.15,2013-02-25 02:51:00,
2013-02-24 21:56:00,27.1,25.1,29.68,East,84,1.0,4.0,92,0.00,,,0.00,Wunderground v.1.15,2013-02-25 02:56:00,
2013-02-24 22:02:00,27.0,25.0,29.68,NNE,18,1.0,4.0,92,0.00,,,0.00,Wunderground v.1.15,2013-02-25 03:02:00,
2013-02-24 22:11:00,27.1,25.1,29.68,SSW,194,1.0,4.0,92,0.00,,,0.00,Wunderground v.1.15,2013-02-25 03:11:00,
2013-02-24 22:16:00,27.0,25.0,29.68,SW,230,1.0,4.0,92,0.00,,,0.00,Wunderground v.1.15,2013-02-25 03:16:00,
2013-02-24 22:21:00,27.0,25.0,29.68,WSW,246,1.0,4.0,92,0.00,,,0.00,Wunderground v.1.15,2013-02-25 03:21:00,
2013-02-24 22:26:00,27.0,25.2,29.68,SW,217,0.0,4.0,93,0.00,,,0.00,Wunderground v.1.15,2013-02-25 03:26:00,
2013-02-24 22:31:00,27.0,25.2,29.68,North,9,0.0,4.0,93,0.00,,,0.00,Wunderground v.1.15,2013-02-25 03:31:00,
2013-02-24 22:37:00,27.1,25.3,29.68,NNW,346,1.0,1.0,93,0.00,,,0.00,Wunderground v.1.15,2013-02-25 03:37:00,
2013-02-24 22:42:00,27.2,25.4,29.68,SW,217,1.0,4.0,93,0.00,,,0.00,Wunderground v.1.15,2013-02-25 03:42:00,
2013-02-24 22:51:00,27.4,25.6,29.68,East,81,1.0,4.0,93,0.00,,,0.00,Wunderground v.1.15,2013-02-25 03:51:00,
2013-02-24 22:56:00,27.4,25.6,29.68,NE,34,1.0,4.0,93,0.00,,,0.00,Wunderground v.1.15,2013-02-25 03:56:00,
2013-02-24 23:01:00,27.4,25.6,29.68,North,5,1.0,4.0,93,0.00,,,0.00,Wunderground v.1.15,2013-02-25 04:01:00,
2013-02-24 23:06:00,27.5,25.7,29.68,NNE,33,1.0,1.0,93,0.00,,,0.00,Wunderground v.1.15,2013-02-25 04:06:00,
2013-02-24 23:11:00,27.5,25.7,29.68,NE,47,1.0,4.0,93,0.00,,,0.00,Wunderground v.1.15,2013-02-25 04:11:00,
2013-02-24 23:17:00,27.5,25.7,29.68,ENE,65,1.0,1.0,93,0.00,,,0.00,Wunderground v.1.15,2013-02-25 04:17:00,
2013-02-24 23:26:00,27.5,25.7,29.68,East,90,1.0,1.0,93,0.00,,,0.00,Wunderground v.1.15,2013-02-25 04:26:00,
2013-02-24 23:31:00,27.5,26.0,29.68,NE,34,1.0,4.0,94,0.00,,,0.00,Wunderground v.1.15,2013-02-25 04:31:00,
2013-02-24 23:36:00,27.6,26.1,29.69,SSW,209,1.0,4.0,94,0.00,,,0.00,Wunderground v.1.15,2013-02-25 04:36:00,
2013-02-24 23:41:00,27.7,26.2,29.69,ENE,71,1.0,7.0,94,0.00,,,0.00,Wunderground v.1.15,2013-02-25 04:41:00,
2013-02-24 23:46:00,27.7,26.2,29.69,NW,315,1.0,4.0,94,0.00,,,0.00,Wunderground v.1.15,2013-02-25 04:46:00,
2013-02-24 23:52:00,27.7,26.2,29.69,NNW,340,1.0,4.0,94,0.00,,,0.00,Wunderground v.1.15,2013-02-25 04:52:00,
2013-02-24 23:57:00,27.7,26.2,29.69,WSW,252,1.0,1.0,94,0.00,,,0.00,Wunderground v.1.15,2013-02-25 04:57:00,